sensor_id;sensor_type;location;lat;lon;timestamp;temperature;humidity
57829;DHT22;43657;52.698;6.314;2023-04-03T00:00:48;2.60;99.90
57829;DHT22;43657;52.698;6.314;2023-04-03T00:03:16;2.50;99.90
57829;DHT22;43657;52.698;6.314;2023-04-03T00:05:42;2.50;99.90
57829;DHT22;43657;52.698;6.314;2023-04-03T00:08:09;2.40;99.90
57829;DHT22;43657;52.698;6.314;2023-04-03T00:10:36;2.40;99.90
57829;DHT22;43657;52.698;6.314;2023-04-03T00:13:04;2.30;99.90
57829;DHT22;43657;52.698;6.314;2023-04-03T00:15:30;2.30;99.90
57829;DHT22;43657;52.698;6.314;2023-04-03T00:17:56;2.20;99.90
57829;DHT22;43657;52.698;6.314;2023-04-03T00:20:22;2.20;99.90
57829;DHT22;43657;52.698;6.314;2023-04-03T00:22:48;2.20;99.90
57829;DHT22;43657;52.698;6.314;2023-04-03T00:25:14;2.20;99.90
57829;DHT22;43657;52.698;6.314;2023-04-03T00:27:40;2.10;99.90
57829;DHT22;43657;52.698;6.314;2023-04-03T00:30:09;2.10;99.90
57829;DHT22;43657;52.698;6.314;2023-04-03T00:32:36;2.10;99.90
57829;DHT22;43657;52.698;6.314;2023-04-03T00:35:03;2.00;99.90
57829;DHT22;43657;52.698;6.314;2023-04-03T00:37:29;2.00;99.90
57829;DHT22;43657;52.698;6.314;2023-04-03T00:39:56;2.00;99.90
57829;DHT22;43657;52.698;6.314;2023-04-03T00:42:23;1.90;99.90
57829;DHT22;43657;52.698;6.314;2023-04-03T00:47:20;1.80;99.90
57829;DHT22;43657;52.698;6.314;2023-04-03T00:49:46;1.80;99.90
57829;DHT22;43657;52.698;6.314;2023-04-03T00:52:19;1.80;99.90
57829;DHT22;43657;52.698;6.314;2023-04-03T00:54:50;1.70;99.90
57829;DHT22;43657;52.698;6.314;2023-04-03T00:57:17;1.70;99.90
57829;DHT22;43657;52.698;6.314;2023-04-03T00:59:46;1.70;99.90
57829;DHT22;43657;52.698;6.314;2023-04-03T01:02:15;1.60;99.90
57829;DHT22;43657;52.698;6.314;2023-04-03T01:04:42;1.60;99.90
57829;DHT22;43657;52.698;6.314;2023-04-03T01:07:24;1.50;99.90
57829;DHT22;43657;52.698;6.314;2023-04-03T01:09:55;1.50;99.90
57829;DHT22;43657;52.698;6.314;2023-04-03T01:12:31;1.50;99.90
57829;DHT22;43657;52.698;6.314;2023-04-03T01:15:00;1.40;99.90
57829;DHT22;43657;52.698;6.314;2023-04-03T01:17:37;1.40;99.90
57829;DHT22;43657;52.698;6.314;2023-04-03T01:25:23;1.20;99.90
57829;DHT22;43657;52.698;6.314;2023-04-03T01:27:49;1.20;99.90
57829;DHT22;43657;52.698;6.314;2023-04-03T01:30:19;1.20;99.90
57829;DHT22;43657;52.698;6.314;2023-04-03T01:32:46;1.10;99.90
57829;DHT22;43657;52.698;6.314;2023-04-03T01:35:12;1.10;99.90
57829;DHT22;43657;52.698;6.314;2023-04-03T01:37:38;1.00;99.90
57829;DHT22;43657;52.698;6.314;2023-04-03T01:40:08;1.00;99.90
57829;DHT22;43657;52.698;6.314;2023-04-03T01:42:34;1.00;99.90
57829;DHT22;43657;52.698;6.314;2023-04-03T01:45:01;0.90;99.90
57829;DHT22;43657;52.698;6.314;2023-04-03T01:47:27;0.90;99.90
57829;DHT22;43657;52.698;6.314;2023-04-03T01:49:56;0.90;99.90
57829;DHT22;43657;52.698;6.314;2023-04-03T01:52:22;1.00;99.90
57829;DHT22;43657;52.698;6.314;2023-04-03T01:54:52;0.80;99.90
57829;DHT22;43657;52.698;6.314;2023-04-03T01:57:18;0.80;99.90
57829;DHT22;43657;52.698;6.314;2023-04-03T01:59:46;0.80;99.90
57829;DHT22;43657;52.698;6.314;2023-04-03T02:02:12;0.70;99.90
57829;DHT22;43657;52.698;6.314;2023-04-03T02:04:40;0.80;99.90
57829;DHT22;43657;52.698;6.314;2023-04-03T02:07:09;0.70;99.90
57829;DHT22;43657;52.698;6.314;2023-04-03T02:09:37;0.70;99.90
57829;DHT22;43657;52.698;6.314;2023-04-03T02:12:06;0.80;99.90
57829;DHT22;43657;52.698;6.314;2023-04-03T02:14:32;0.80;99.90
57829;DHT22;43657;52.698;6.314;2023-04-03T02:17:03;0.80;99.90
57829;DHT22;43657;52.698;6.314;2023-04-03T02:19:37;0.80;99.90
57829;DHT22;43657;52.698;6.314;2023-04-03T02:22:03;0.90;99.90
57829;DHT22;43657;52.698;6.314;2023-04-03T02:24:32;0.90;99.90
57829;DHT22;43657;52.698;6.314;2023-04-03T02:26:58;0.90;99.90
57829;DHT22;43657;52.698;6.314;2023-04-03T02:29:27;1.00;99.90
57829;DHT22;43657;52.698;6.314;2023-04-03T02:31:53;0.90;99.90
57829;DHT22;43657;52.698;6.314;2023-04-03T02:34:19;0.90;99.90
57829;DHT22;43657;52.698;6.314;2023-04-03T02:36:48;0.90;99.90
57829;DHT22;43657;52.698;6.314;2023-04-03T02:39:29;1.00;99.90
57829;DHT22;43657;52.698;6.314;2023-04-03T02:41:55;1.00;99.90
57829;DHT22;43657;52.698;6.314;2023-04-03T02:44:21;1.00;99.90
57829;DHT22;43657;52.698;6.314;2023-04-03T02:46:51;0.90;99.90
57829;DHT22;43657;52.698;6.314;2023-04-03T02:49:20;0.90;99.90
57829;DHT22;43657;52.698;6.314;2023-04-03T02:51:51;0.90;99.90
57829;DHT22;43657;52.698;6.314;2023-04-03T02:54:26;0.80;99.90
57829;DHT22;43657;52.698;6.314;2023-04-03T02:56:56;0.90;99.90
57829;DHT22;43657;52.698;6.314;2023-04-03T02:59:23;0.90;99.90
57829;DHT22;43657;52.698;6.314;2023-04-03T03:01:50;0.90;99.90
57829;DHT22;43657;52.698;6.314;2023-04-03T03:04:16;0.80;99.90
57829;DHT22;43657;52.698;6.314;2023-04-03T03:06:42;0.80;99.90
57829;DHT22;43657;52.698;6.314;2023-04-03T03:09:09;0.80;99.90
57829;DHT22;43657;52.698;6.314;2023-04-03T03:11:38;0.90;99.90
57829;DHT22;43657;52.698;6.314;2023-04-03T03:14:06;0.80;99.90
57829;DHT22;43657;52.698;6.314;2023-04-03T03:16:32;0.80;99.90
57829;DHT22;43657;52.698;6.314;2023-04-03T03:19:01;0.80;99.90
57829;DHT22;43657;52.698;6.314;2023-04-03T03:21:27;0.80;99.90
57829;DHT22;43657;52.698;6.314;2023-04-03T03:23:54;0.70;99.90
57829;DHT22;43657;52.698;6.314;2023-04-03T03:26:20;0.70;99.90
57829;DHT22;43657;52.698;6.314;2023-04-03T03:28:46;0.70;99.90
57829;DHT22;43657;52.698;6.314;2023-04-03T03:31:15;0.70;99.90
57829;DHT22;43657;52.698;6.314;2023-04-03T03:33:41;0.60;99.90
57829;DHT22;43657;52.698;6.314;2023-04-03T03:36:08;0.60;99.90
57829;DHT22;43657;52.698;6.314;2023-04-03T03:38:35;0.60;99.90
57829;DHT22;43657;52.698;6.314;2023-04-03T03:41:00;0.50;99.90
57829;DHT22;43657;52.698;6.314;2023-04-03T03:43:27;0.50;99.90
57829;DHT22;43657;52.698;6.314;2023-04-03T03:45:54;0.40;99.90
57829;DHT22;43657;52.698;6.314;2023-04-03T03:48:21;0.40;99.90
57829;DHT22;43657;52.698;6.314;2023-04-03T03:50:47;0.30;99.90
57829;DHT22;43657;52.698;6.314;2023-04-03T03:53:12;0.30;99.90
57829;DHT22;43657;52.698;6.314;2023-04-03T03:55:38;0.20;99.90
57829;DHT22;43657;52.698;6.314;2023-04-03T03:58:03;0.20;99.90
57829;DHT22;43657;52.698;6.314;2023-04-03T04:00:29;0.10;99.90
57829;DHT22;43657;52.698;6.314;2023-04-03T04:02:56;0.10;99.90
57829;DHT22;43657;52.698;6.314;2023-04-03T04:05:21;0.10;99.90
57829;DHT22;43657;52.698;6.314;2023-04-03T04:07:47;0.00;99.90
57829;DHT22;43657;52.698;6.314;2023-04-03T04:10:13;-0.10;99.90
57829;DHT22;43657;52.698;6.314;2023-04-03T04:12:39;-0.20;99.90
57829;DHT22;43657;52.698;6.314;2023-04-03T04:15:05;-0.20;99.90
57829;DHT22;43657;52.698;6.314;2023-04-03T04:17:31;-0.20;99.90
57829;DHT22;43657;52.698;6.314;2023-04-03T04:19:56;-0.30;99.90
57829;DHT22;43657;52.698;6.314;2023-04-03T04:22:22;-0.40;99.90
57829;DHT22;43657;52.698;6.314;2023-04-03T04:24:47;-0.60;99.90
57829;DHT22;43657;52.698;6.314;2023-04-03T04:27:13;-0.60;99.90
57829;DHT22;43657;52.698;6.314;2023-04-03T04:29:38;-0.70;99.90
57829;DHT22;43657;52.698;6.314;2023-04-03T04:32:04;-0.80;99.90
57829;DHT22;43657;52.698;6.314;2023-04-03T04:34:30;-0.80;99.90
57829;DHT22;43657;52.698;6.314;2023-04-03T04:36:55;-0.80;99.90
57829;DHT22;43657;52.698;6.314;2023-04-03T04:39:21;-0.80;99.90
57829;DHT22;43657;52.698;6.314;2023-04-03T04:41:46;-0.90;99.90
57829;DHT22;43657;52.698;6.314;2023-04-03T04:44:12;-0.80;99.90
57829;DHT22;43657;52.698;6.314;2023-04-03T04:46:37;-0.80;99.90
57829;DHT22;43657;52.698;6.314;2023-04-03T04:49:03;-0.80;99.90
57829;DHT22;43657;52.698;6.314;2023-04-03T04:51:29;-0.80;99.90
57829;DHT22;43657;52.698;6.314;2023-04-03T04:53:54;-0.80;99.90
57829;DHT22;43657;52.698;6.314;2023-04-03T04:56:20;-0.80;99.90
57829;DHT22;43657;52.698;6.314;2023-04-03T04:58:46;-0.80;99.90
57829;DHT22;43657;52.698;6.314;2023-04-03T05:01:11;-0.80;99.90
57829;DHT22;43657;52.698;6.314;2023-04-03T05:03:37;-0.70;99.90
57829;DHT22;43657;52.698;6.314;2023-04-03T05:06:03;-0.70;99.90
57829;DHT22;43657;52.698;6.314;2023-04-03T05:08:29;-0.60;99.90
57829;DHT22;43657;52.698;6.314;2023-04-03T05:10:54;-0.60;99.90
57829;DHT22;43657;52.698;6.314;2023-04-03T05:13:20;-0.60;99.90
57829;DHT22;43657;52.698;6.314;2023-04-03T05:15:46;-0.60;99.90
57829;DHT22;43657;52.698;6.314;2023-04-03T05:18:12;-0.60;99.90
57829;DHT22;43657;52.698;6.314;2023-04-03T05:20:38;-0.60;99.90
57829;DHT22;43657;52.698;6.314;2023-04-03T05:23:03;-0.60;99.90
57829;DHT22;43657;52.698;6.314;2023-04-03T05:25:29;-0.60;99.90
57829;DHT22;43657;52.698;6.314;2023-04-03T05:27:55;-0.60;99.90
57829;DHT22;43657;52.698;6.314;2023-04-03T05:30:21;-0.60;99.90
57829;DHT22;43657;52.698;6.314;2023-04-03T05:32:46;-0.50;99.90
57829;DHT22;43657;52.698;6.314;2023-04-03T05:35:12;-0.60;99.90
57829;DHT22;43657;52.698;6.314;2023-04-03T05:37:38;-0.50;99.90
57829;DHT22;43657;52.698;6.314;2023-04-03T05:40:05;-0.50;99.90
57829;DHT22;43657;52.698;6.314;2023-04-03T05:42:31;-0.50;99.90
57829;DHT22;43657;52.698;6.314;2023-04-03T05:44:56;-0.50;99.90
57829;DHT22;43657;52.698;6.314;2023-04-03T05:47:22;-0.50;99.90
57829;DHT22;43657;52.698;6.314;2023-04-03T05:49:48;-0.40;99.90
57829;DHT22;43657;52.698;6.314;2023-04-03T05:52:27;-0.40;99.90
57829;DHT22;43657;52.698;6.314;2023-04-03T05:54:53;-0.30;99.90
57829;DHT22;43657;52.698;6.314;2023-04-03T05:57:19;-0.30;99.90
57829;DHT22;43657;52.698;6.314;2023-04-03T05:59:45;-0.20;99.90
57829;DHT22;43657;52.698;6.314;2023-04-03T06:02:13;-0.20;99.90
57829;DHT22;43657;52.698;6.314;2023-04-03T06:04:39;-0.10;99.90
57829;DHT22;43657;52.698;6.314;2023-04-03T06:07:04;-0.10;99.90
57829;DHT22;43657;52.698;6.314;2023-04-03T06:09:30;0.00;99.90
57829;DHT22;43657;52.698;6.314;2023-04-03T06:11:56;0.00;99.90
57829;DHT22;43657;52.698;6.314;2023-04-03T06:14:24;0.10;99.90
57829;DHT22;43657;52.698;6.314;2023-04-03T06:16:51;0.20;99.90
57829;DHT22;43657;52.698;6.314;2023-04-03T06:19:17;0.30;99.90
57829;DHT22;43657;52.698;6.314;2023-04-03T06:21:42;0.40;99.90
57829;DHT22;43657;52.698;6.314;2023-04-03T06:24:09;0.40;99.90
57829;DHT22;43657;52.698;6.314;2023-04-03T06:26:37;0.60;99.90
57829;DHT22;43657;52.698;6.314;2023-04-03T06:29:02;0.60;99.90
57829;DHT22;43657;52.698;6.314;2023-04-03T06:31:28;0.60;99.90
57829;DHT22;43657;52.698;6.314;2023-04-03T06:33:53;0.70;99.90
57829;DHT22;43657;52.698;6.314;2023-04-03T06:36:20;0.80;99.90
57829;DHT22;43657;52.698;6.314;2023-04-03T06:38:46;0.80;99.90
57829;DHT22;43657;52.698;6.314;2023-04-03T06:41:12;0.90;99.90
57829;DHT22;43657;52.698;6.314;2023-04-03T06:43:37;1.00;99.90
57829;DHT22;43657;52.698;6.314;2023-04-03T06:46:03;1.10;99.90
57829;DHT22;43657;52.698;6.314;2023-04-03T06:48:29;1.20;99.90
57829;DHT22;43657;52.698;6.314;2023-04-03T06:50:55;1.30;99.90
57829;DHT22;43657;52.698;6.314;2023-04-03T06:53:21;1.40;99.90
57829;DHT22;43657;52.698;6.314;2023-04-03T06:55:46;1.50;99.90
57829;DHT22;43657;52.698;6.314;2023-04-03T06:58:12;1.50;99.90
57829;DHT22;43657;52.698;6.314;2023-04-03T07:00:39;1.60;99.90
57829;DHT22;43657;52.698;6.314;2023-04-03T07:03:04;1.70;99.90
57829;DHT22;43657;52.698;6.314;2023-04-03T07:05:30;1.80;99.90
57829;DHT22;43657;52.698;6.314;2023-04-03T07:07:56;1.80;99.90
57829;DHT22;43657;52.698;6.314;2023-04-03T07:10:22;1.90;99.90
57829;DHT22;43657;52.698;6.314;2023-04-03T07:12:47;2.00;99.90
57829;DHT22;43657;52.698;6.314;2023-04-03T07:15:14;2.10;99.90
57829;DHT22;43657;52.698;6.314;2023-04-03T07:17:39;2.20;99.90
57829;DHT22;43657;52.698;6.314;2023-04-03T07:20:06;2.20;99.90
57829;DHT22;43657;52.698;6.314;2023-04-03T07:22:32;2.20;99.90
57829;DHT22;43657;52.698;6.314;2023-04-03T07:24:58;2.30;99.90
57829;DHT22;43657;52.698;6.314;2023-04-03T07:27:24;2.40;99.90
57829;DHT22;43657;52.698;6.314;2023-04-03T07:29:50;2.40;99.90
57829;DHT22;43657;52.698;6.314;2023-04-03T07:32:16;2.50;99.90
57829;DHT22;43657;52.698;6.314;2023-04-03T07:34:43;2.60;99.90
57829;DHT22;43657;52.698;6.314;2023-04-03T07:37:09;2.70;99.90
57829;DHT22;43657;52.698;6.314;2023-04-03T07:39:34;2.70;99.90
57829;DHT22;43657;52.698;6.314;2023-04-03T07:42:00;2.80;99.90
57829;DHT22;43657;52.698;6.314;2023-04-03T07:44:26;2.90;99.90
57829;DHT22;43657;52.698;6.314;2023-04-03T07:46:52;3.00;99.90
57829;DHT22;43657;52.698;6.314;2023-04-03T07:49:18;3.10;99.90
57829;DHT22;43657;52.698;6.314;2023-04-03T07:51:44;3.10;99.90
57829;DHT22;43657;52.698;6.314;2023-04-03T07:54:10;3.20;99.90
57829;DHT22;43657;52.698;6.314;2023-04-03T07:56:36;3.30;99.90
57829;DHT22;43657;52.698;6.314;2023-04-03T07:59:01;3.40;99.90
57829;DHT22;43657;52.698;6.314;2023-04-03T08:01:27;3.50;99.90
57829;DHT22;43657;52.698;6.314;2023-04-03T08:03:53;3.60;99.90
57829;DHT22;43657;52.698;6.314;2023-04-03T08:06:18;3.60;99.90
57829;DHT22;43657;52.698;6.314;2023-04-03T08:08:44;3.70;99.90
57829;DHT22;43657;52.698;6.314;2023-04-03T08:11:11;3.80;99.90
57829;DHT22;43657;52.698;6.314;2023-04-03T08:13:37;3.80;99.90
57829;DHT22;43657;52.698;6.314;2023-04-03T08:16:11;3.90;99.90
57829;DHT22;43657;52.698;6.314;2023-04-03T08:18:38;3.90;99.90
57829;DHT22;43657;52.698;6.314;2023-04-03T08:21:09;4.10;99.90
57829;DHT22;43657;52.698;6.314;2023-04-03T08:23:36;4.20;99.90
57829;DHT22;43657;52.698;6.314;2023-04-03T08:26:10;4.30;99.90
57829;DHT22;43657;52.698;6.314;2023-04-03T08:28:35;4.40;99.90
57829;DHT22;43657;52.698;6.314;2023-04-03T08:31:05;4.50;99.90
57829;DHT22;43657;52.698;6.314;2023-04-03T08:33:31;4.50;99.90
57829;DHT22;43657;52.698;6.314;2023-04-03T08:35:57;4.60;99.90
57829;DHT22;43657;52.698;6.314;2023-04-03T08:38:23;4.70;99.90
57829;DHT22;43657;52.698;6.314;2023-04-03T08:41:22;4.80;99.90
57829;DHT22;43657;52.698;6.314;2023-04-03T08:43:56;4.90;99.90
57829;DHT22;43657;52.698;6.314;2023-04-03T08:47:12;5.70;99.90
57829;DHT22;43657;52.698;6.314;2023-04-03T08:52:02;7.20;79.40
57829;DHT22;43657;52.698;6.314;2023-04-03T08:54:33;7.70;75.90
57829;DHT22;43657;52.698;6.314;2023-04-03T08:57:03;8.00;72.80
57829;DHT22;43657;52.698;6.314;2023-04-03T08:59:35;8.30;70.40
57829;DHT22;43657;52.698;6.314;2023-04-03T09:02:04;8.50;70.50
57829;DHT22;43657;52.698;6.314;2023-04-03T09:04:37;8.80;69.50
57829;DHT22;43657;52.698;6.314;2023-04-03T09:07:15;9.00;65.90
57829;DHT22;43657;52.698;6.314;2023-04-03T09:09:42;9.10;62.70
57829;DHT22;43657;52.698;6.314;2023-04-03T09:22:41;9.80;59.50
57829;DHT22;43657;52.698;6.314;2023-04-03T09:25:20;9.90;60.00
57829;DHT22;43657;52.698;6.314;2023-04-03T09:27:47;10.00;56.40
57829;DHT22;43657;52.698;6.314;2023-04-03T09:30:15;10.00;57.50
57829;DHT22;43657;52.698;6.314;2023-04-03T09:32:41;10.10;59.10
57829;DHT22;43657;52.698;6.314;2023-04-03T09:35:16;10.30;56.90
57829;DHT22;43657;52.698;6.314;2023-04-03T09:37:45;10.30;54.70
57829;DHT22;43657;52.698;6.314;2023-04-03T09:43:00;10.40;53.80
57829;DHT22;43657;52.698;6.314;2023-04-03T09:45:28;10.50;54.70
57829;DHT22;43657;52.698;6.314;2023-04-03T09:50:52;10.60;56.40
57829;DHT22;43657;52.698;6.314;2023-04-03T09:53:37;10.70;59.70
57829;DHT22;43657;52.698;6.314;2023-04-03T09:58:46;11.00;54.50
57829;DHT22;43657;52.698;6.314;2023-04-03T10:01:27;11.10;54.00
57829;DHT22;43657;52.698;6.314;2023-04-03T10:04:17;11.20;55.60
57829;DHT22;43657;52.698;6.314;2023-04-03T10:06:44;11.30;53.90
57829;DHT22;43657;52.698;6.314;2023-04-03T10:12:03;11.70;50.40
57829;DHT22;43657;52.698;6.314;2023-04-03T10:14:37;11.60;54.30
57829;DHT22;43657;52.698;6.314;2023-04-03T10:17:20;11.80;57.00
57829;DHT22;43657;52.698;6.314;2023-04-03T10:23:00;12.80;51.80
57829;DHT22;43657;52.698;6.314;2023-04-03T10:25:47;12.70;52.00
57829;DHT22;43657;52.698;6.314;2023-04-03T10:42:28;12.40;49.90
57829;DHT22;43657;52.698;6.314;2023-04-03T10:50:53;13.30;49.50
57829;DHT22;43657;52.698;6.314;2023-04-03T10:53:44;13.40;46.10
57829;DHT22;43657;52.698;6.314;2023-04-03T10:56:29;13.00;46.60
57829;DHT22;43657;52.698;6.314;2023-04-03T11:01:46;12.50;48.60
57829;DHT22;43657;52.698;6.314;2023-04-03T11:04:16;12.40;49.30
57829;DHT22;43657;52.698;6.314;2023-04-03T11:06:50;12.50;48.80
57829;DHT22;43657;52.698;6.314;2023-04-03T11:09:27;12.30;50.40
57829;DHT22;43657;52.698;6.314;2023-04-03T11:11:58;12.40;48.60
57829;DHT22;43657;52.698;6.314;2023-04-03T11:14:36;12.50;49.40
57829;DHT22;43657;52.698;6.314;2023-04-03T11:20:10;12.70;48.00
57829;DHT22;43657;52.698;6.314;2023-04-03T11:22:42;12.60;46.50
57829;DHT22;43657;52.698;6.314;2023-04-03T11:30:44;12.60;49.10
57829;DHT22;43657;52.698;6.314;2023-04-03T11:33:35;12.60;49.50
57829;DHT22;43657;52.698;6.314;2023-04-03T11:36:09;12.80;49.60
57829;DHT22;43657;52.698;6.314;2023-04-03T11:38:41;13.00;49.10
57829;DHT22;43657;52.698;6.314;2023-04-03T11:41:09;13.00;48.60
57829;DHT22;43657;52.698;6.314;2023-04-03T11:43:43;13.00;49.30
57829;DHT22;43657;52.698;6.314;2023-04-03T11:46:21;13.10;48.50
57829;DHT22;43657;52.698;6.314;2023-04-03T11:48:49;12.90;48.40
57829;DHT22;43657;52.698;6.314;2023-04-03T11:53:42;12.70;48.10
57829;DHT22;43657;52.698;6.314;2023-04-03T12:01:44;12.70;49.90
57829;DHT22;43657;52.698;6.314;2023-04-03T12:04:11;12.80;48.00
57829;DHT22;43657;52.698;6.314;2023-04-03T12:11:56;12.50;48.30
57829;DHT22;43657;52.698;6.314;2023-04-03T12:14:23;12.70;50.50
57829;DHT22;43657;52.698;6.314;2023-04-03T12:16:52;12.90;49.50
57829;DHT22;43657;52.698;6.314;2023-04-03T12:24:29;13.70;48.80
57829;DHT22;43657;52.698;6.314;2023-04-03T12:27:34;13.60;48.40
57829;DHT22;43657;52.698;6.314;2023-04-03T12:30:05;13.70;49.00
57829;DHT22;43657;52.698;6.314;2023-04-03T12:35:30;13.30;47.70
57829;DHT22;43657;52.698;6.314;2023-04-03T12:43:49;13.30;49.80
57829;DHT22;43657;52.698;6.314;2023-04-03T12:46:19;13.80;52.00
57829;DHT22;43657;52.698;6.314;2023-04-03T12:48:57;14.50;49.60
57829;DHT22;43657;52.698;6.314;2023-04-03T12:51:42;14.80;49.50
57829;DHT22;43657;52.698;6.314;2023-04-03T12:54:26;15.20;51.30
57829;DHT22;43657;52.698;6.314;2023-04-03T12:57:08;15.70;50.60
57829;DHT22;43657;52.698;6.314;2023-04-03T12:59:33;15.70;45.10
57829;DHT22;43657;52.698;6.314;2023-04-03T13:02:00;14.80;44.90
57829;DHT22;43657;52.698;6.314;2023-04-03T13:04:31;14.10;45.60
57829;DHT22;43657;52.698;6.314;2023-04-03T13:06:58;14.10;50.20
57829;DHT22;43657;52.698;6.314;2023-04-03T13:09:26;14.40;46.60
57829;DHT22;43657;52.698;6.314;2023-04-03T13:12:14;14.50;48.10
57829;DHT22;43657;52.698;6.314;2023-04-03T13:14:49;14.80;47.30
57829;DHT22;43657;52.698;6.314;2023-04-03T13:17:17;15.00;48.80
57829;DHT22;43657;52.698;6.314;2023-04-03T13:19:44;15.10;47.00
57829;DHT22;43657;52.698;6.314;2023-04-03T13:22:33;14.60;45.70
57829;DHT22;43657;52.698;6.314;2023-04-03T13:25:06;14.10;47.50
57829;DHT22;43657;52.698;6.314;2023-04-03T13:27:32;13.90;47.60
57829;DHT22;43657;52.698;6.314;2023-04-03T13:30:00;13.90;49.60
57829;DHT22;43657;52.698;6.314;2023-04-03T13:32:28;14.30;49.60
57829;DHT22;43657;52.698;6.314;2023-04-03T13:34:55;14.10;47.70
57829;DHT22;43657;52.698;6.314;2023-04-03T13:37:27;13.90;48.50
57829;DHT22;43657;52.698;6.314;2023-04-03T13:40:04;14.10;49.20
57829;DHT22;43657;52.698;6.314;2023-04-03T13:42:38;13.90;48.50
57829;DHT22;43657;52.698;6.314;2023-04-03T13:45:24;13.90;48.40
57829;DHT22;43657;52.698;6.314;2023-04-03T13:48:07;13.90;48.30
57829;DHT22;43657;52.698;6.314;2023-04-03T13:50:33;14.20;50.60
57829;DHT22;43657;52.698;6.314;2023-04-03T13:53:15;14.40;47.80
57829;DHT22;43657;52.698;6.314;2023-04-03T13:56:37;14.30;48.30
57829;DHT22;43657;52.698;6.314;2023-04-03T13:59:04;14.10;47.50
57829;DHT22;43657;52.698;6.314;2023-04-03T14:07:03;13.20;48.20
57829;DHT22;43657;52.698;6.314;2023-04-03T14:09:28;13.30;49.20
57829;DHT22;43657;52.698;6.314;2023-04-03T14:12:02;13.80;50.00
57829;DHT22;43657;52.698;6.314;2023-04-03T14:14:33;13.70;48.80
57829;DHT22;43657;52.698;6.314;2023-04-03T14:17:02;13.50;47.80
57829;DHT22;43657;52.698;6.314;2023-04-03T14:19:31;13.20;49.10
57829;DHT22;43657;52.698;6.314;2023-04-03T14:21:58;13.20;51.40
57829;DHT22;43657;52.698;6.314;2023-04-03T14:24:25;13.20;49.40
57829;DHT22;43657;52.698;6.314;2023-04-03T14:26:52;12.80;48.60
57829;DHT22;43657;52.698;6.314;2023-04-03T14:29:19;12.40;49.50
57829;DHT22;43657;52.698;6.314;2023-04-03T14:31:46;12.40;50.40
57829;DHT22;43657;52.698;6.314;2023-04-03T14:34:13;12.40;49.80
57829;DHT22;43657;52.698;6.314;2023-04-03T14:36:41;12.10;49.50
57829;DHT22;43657;52.698;6.314;2023-04-03T14:39:10;11.80;49.90
57829;DHT22;43657;52.698;6.314;2023-04-03T14:41:36;11.50;51.00
57829;DHT22;43657;52.698;6.314;2023-04-03T14:44:02;11.30;52.60
57829;DHT22;43657;52.698;6.314;2023-04-03T14:46:31;11.30;53.80
57829;DHT22;43657;52.698;6.314;2023-04-03T14:48:59;11.40;52.60
57829;DHT22;43657;52.698;6.314;2023-04-03T14:51:25;11.30;52.80
57829;DHT22;43657;52.698;6.314;2023-04-03T14:53:51;11.10;52.30
57829;DHT22;43657;52.698;6.314;2023-04-03T14:58:43;10.70;53.70
57829;DHT22;43657;52.698;6.314;2023-04-03T15:01:12;10.60;53.50
57829;DHT22;43657;52.698;6.314;2023-04-03T15:03:39;10.50;53.50
57829;DHT22;43657;52.698;6.314;2023-04-03T15:06:05;10.40;53.90
57829;DHT22;43657;52.698;6.314;2023-04-03T15:08:30;10.50;54.50
57829;DHT22;43657;52.698;6.314;2023-04-03T15:10:57;10.40;54.60
57829;DHT22;43657;52.698;6.314;2023-04-03T15:13:23;10.30;54.60
57829;DHT22;43657;52.698;6.314;2023-04-03T15:15:50;10.30;54.40
57829;DHT22;43657;52.698;6.314;2023-04-03T15:18:25;10.30;54.20
57829;DHT22;43657;52.698;6.314;2023-04-03T15:20:52;10.20;54.40
57829;DHT22;43657;52.698;6.314;2023-04-03T15:23:18;10.10;54.80
57829;DHT22;43657;52.698;6.314;2023-04-03T15:25:48;10.20;54.80
57829;DHT22;43657;52.698;6.314;2023-04-03T15:28:22;10.10;54.20
57829;DHT22;43657;52.698;6.314;2023-04-03T15:30:48;10.10;54.20
57829;DHT22;43657;52.698;6.314;2023-04-03T15:33:14;10.00;55.00
57829;DHT22;43657;52.698;6.314;2023-04-03T15:35:41;10.10;55.20
57829;DHT22;43657;52.698;6.314;2023-04-03T15:38:06;10.10;53.30
57829;DHT22;43657;52.698;6.314;2023-04-03T15:40:32;10.10;54.20
57829;DHT22;43657;52.698;6.314;2023-04-03T15:42:58;10.10;54.30
57829;DHT22;43657;52.698;6.314;2023-04-03T15:45:23;10.10;54.20
57829;DHT22;43657;52.698;6.314;2023-04-03T15:47:50;10.10;54.50
57829;DHT22;43657;52.698;6.314;2023-04-03T15:50:15;10.00;54.20
57829;DHT22;43657;52.698;6.314;2023-04-03T15:52:41;9.90;55.20
57829;DHT22;43657;52.698;6.314;2023-04-03T15:55:07;9.90;54.80
57829;DHT22;43657;52.698;6.314;2023-04-03T15:57:33;9.80;53.80
57829;DHT22;43657;52.698;6.314;2023-04-03T15:59:58;9.70;54.30
57829;DHT22;43657;52.698;6.314;2023-04-03T16:02:24;9.60;53.70
57829;DHT22;43657;52.698;6.314;2023-04-03T16:04:54;9.50;54.30
57829;DHT22;43657;52.698;6.314;2023-04-03T16:07:19;9.40;55.20
57829;DHT22;43657;52.698;6.314;2023-04-03T16:09:45;9.40;56.20
57829;DHT22;43657;52.698;6.314;2023-04-03T16:12:11;9.40;55.70
57829;DHT22;43657;52.698;6.314;2023-04-03T16:14:36;9.40;54.20
57829;DHT22;43657;52.698;6.314;2023-04-03T16:17:02;9.30;55.20
57829;DHT22;43657;52.698;6.314;2023-04-03T16:19:29;9.30;56.10
57829;DHT22;43657;52.698;6.314;2023-04-03T16:21:55;9.30;56.90
57829;DHT22;43657;52.698;6.314;2023-04-03T16:24:21;9.30;56.60
57829;DHT22;43657;52.698;6.314;2023-04-03T16:26:47;9.20;56.00
57829;DHT22;43657;52.698;6.314;2023-04-03T16:29:12;9.20;56.50
57829;DHT22;43657;52.698;6.314;2023-04-03T16:31:38;9.20;55.00
57829;DHT22;43657;52.698;6.314;2023-04-03T16:34:04;9.10;54.00
57829;DHT22;43657;52.698;6.314;2023-04-03T16:36:29;9.10;54.20
57829;DHT22;43657;52.698;6.314;2023-04-03T16:38:55;9.00;54.50
57829;DHT22;43657;52.698;6.314;2023-04-03T16:41:21;8.90;53.70
57829;DHT22;43657;52.698;6.314;2023-04-03T16:43:46;8.90;54.00
57829;DHT22;43657;52.698;6.314;2023-04-03T16:46:12;8.80;54.70
57829;DHT22;43657;52.698;6.314;2023-04-03T16:48:37;8.80;54.70
57829;DHT22;43657;52.698;6.314;2023-04-03T16:51:03;8.80;55.10
57829;DHT22;43657;52.698;6.314;2023-04-03T16:53:28;8.70;56.50
57829;DHT22;43657;52.698;6.314;2023-04-03T16:55:57;8.70;55.40
57829;DHT22;43657;52.698;6.314;2023-04-03T16:58:23;8.60;56.40
57829;DHT22;43657;52.698;6.314;2023-04-03T17:00:48;8.60;57.30
57829;DHT22;43657;52.698;6.314;2023-04-03T17:03:14;8.60;56.50
57829;DHT22;43657;52.698;6.314;2023-04-03T17:05:40;8.50;57.30
57829;DHT22;43657;52.698;6.314;2023-04-03T17:08:05;8.50;58.10
57829;DHT22;43657;52.698;6.314;2023-04-03T17:10:31;8.50;57.50
57829;DHT22;43657;52.698;6.314;2023-04-03T17:12:58;8.50;57.70
57829;DHT22;43657;52.698;6.314;2023-04-03T17:15:25;8.40;57.40
57829;DHT22;43657;52.698;6.314;2023-04-03T17:17:51;8.40;57.90
57829;DHT22;43657;52.698;6.314;2023-04-03T17:20:17;8.30;58.40
57829;DHT22;43657;52.698;6.314;2023-04-03T17:22:43;8.30;58.40
57829;DHT22;43657;52.698;6.314;2023-04-03T17:25:10;8.20;58.20
57829;DHT22;43657;52.698;6.314;2023-04-03T17:27:36;8.20;58.90
57829;DHT22;43657;52.698;6.314;2023-04-03T17:30:02;8.10;59.00